sensor_id;sensor_type;location;lat;lon;timestamp;pressure;altitude;pressure_sealevel;temperature;humidity
71976;BME280;68326;52.124;5.424;2024-01-30T00:00:44;102589.28;;;8.53;88.50
71976;BME280;68326;52.124;5.424;2024-01-30T00:03:10;102596.25;;;8.50;88.35
71976;BME280;68326;52.124;5.424;2024-01-30T00:05:37;102594.56;;;8.46;87.96
71976;BME280;68326;52.124;5.424;2024-01-30T00:08:04;102598.06;;;8.45;89.01
71976;BME280;68326;52.124;5.424;2024-01-30T00:10:30;102598.84;;;8.51;88.37
71976;BME280;68326;52.124;5.424;2024-01-30T00:12:57;102599.59;;;8.58;90.46
71976;BME280;68326;52.124;5.424;2024-01-30T00:15:23;102596.00;;;8.68;90.96
71976;BME280;68326;52.124;5.424;2024-01-30T00:17:50;102586.38;;;8.78;91.21
71976;BME280;68326;52.124;5.424;2024-01-30T00:20:19;102599.22;;;8.86;91.00
71976;BME280;68326;52.124;5.424;2024-01-30T00:22:45;102587.88;;;8.91;91.32
71976;BME280;68326;52.124;5.424;2024-01-30T00:25:12;102593.00;;;8.96;91.26
71976;BME280;68326;52.124;5.424;2024-01-30T00:27:39;102597.44;;;8.91;90.55
71976;BME280;68326;52.124;5.424;2024-01-30T00:30:06;102587.91;;;8.90;91.21
71976;BME280;68326;52.124;5.424;2024-01-30T00:32:33;102593.06;;;8.93;91.22
71976;BME280;68326;52.124;5.424;2024-01-30T00:34:59;102591.34;;;8.92;90.91
71976;BME280;68326;52.124;5.424;2024-01-30T00:37:26;102585.28;;;8.93;91.17
71976;BME280;68326;52.124;5.424;2024-01-30T00:39:52;102587.81;;;8.94;91.56
71976;BME280;68326;52.124;5.424;2024-01-30T00:42:19;102581.81;;;8.92;90.88
71976;BME280;68326;52.124;5.424;2024-01-30T00:44:45;102588.75;;;8.92;90.80
71976;BME280;68326;52.124;5.424;2024-01-30T00:47:12;102580.19;;;8.85;91.03
71976;BME280;68326;52.124;5.424;2024-01-30T00:49:38;102584.63;;;8.78;90.17
71976;BME280;68326;52.124;5.424;2024-01-30T00:52:05;102582.13;;;8.72;90.31
71976;BME280;68326;52.124;5.424;2024-01-30T00:54:32;102582.19;;;8.69;90.23
71976;BME280;68326;52.124;5.424;2024-01-30T00:56:58;102589.06;;;8.69;90.21
71976;BME280;68326;52.124;5.424;2024-01-30T00:59:25;102585.53;;;8.74;91.16
71976;BME280;68326;52.124;5.424;2024-01-30T01:01:51;102577.75;;;8.76;90.25
71976;BME280;68326;52.124;5.424;2024-01-30T01:04:18;102582.03;;;8.77;91.02
71976;BME280;68326;52.124;5.424;2024-01-30T01:06:45;102583.78;;;8.76;91.10
71976;BME280;68326;52.124;5.424;2024-01-30T01:09:12;102582.13;;;8.71;90.52
71976;BME280;68326;52.124;5.424;2024-01-30T01:11:39;102573.56;;;8.66;89.79
71976;BME280;68326;52.124;5.424;2024-01-30T01:14:05;102577.06;;;8.63;89.98
71976;BME280;68326;52.124;5.424;2024-01-30T01:16:33;102581.44;;;8.60;89.71
71976;BME280;68326;52.124;5.424;2024-01-30T01:18:59;102574.50;;;8.60;90.26
71976;BME280;68326;52.124;5.424;2024-01-30T01:21:26;102571.06;;;8.60;90.36
71976;BME280;68326;52.124;5.424;2024-01-30T01:23:53;102567.63;;;8.57;89.88
71976;BME280;68326;52.124;5.424;2024-01-30T01:26:20;102556.50;;;8.49;89.77
71976;BME280;68326;52.124;5.424;2024-01-30T01:28:47;102560.03;;;8.44;89.36
71976;BME280;68326;52.124;5.424;2024-01-30T01:31:14;102548.00;;;8.36;89.21
71976;BME280;68326;52.124;5.424;2024-01-30T01:33:41;102545.47;;;8.30;88.66
71976;BME280;68326;52.124;5.424;2024-01-30T01:36:08;102552.38;;;8.31;90.65
71976;BME280;68326;52.124;5.424;2024-01-30T01:38:34;102552.31;;;8.36;90.23
71976;BME280;68326;52.124;5.424;2024-01-30T01:41:01;102548.81;;;8.40;90.50
71976;BME280;68326;52.124;5.424;2024-01-30T01:43:27;102543.56;;;8.46;89.83
71976;BME280;68326;52.124;5.424;2024-01-30T01:45:54;102558.25;;;8.46;89.68
71976;BME280;68326;52.124;5.424;2024-01-30T01:48:20;102550.47;;;8.46;90.64
71976;BME280;68326;52.124;5.424;2024-01-30T01:50:47;102553.88;;;8.51;90.59
71976;BME280;68326;52.124;5.424;2024-01-30T01:53:15;102556.41;;;8.57;90.95
71976;BME280;68326;52.124;5.424;2024-01-30T01:55:43;102544.16;;;8.65;91.29
71976;BME280;68326;52.124;5.424;2024-01-30T01:58:09;102550.97;;;8.71;91.35
71976;BME280;68326;52.124;5.424;2024-01-30T02:00:39;102553.56;;;8.71;91.64
71976;BME280;68326;52.124;5.424;2024-01-30T02:03:10;102544.91;;;8.73;90.68
71976;BME280;68326;52.124;5.424;2024-01-30T02:05:38;102550.13;;;8.72;91.20
71976;BME280;68326;52.124;5.424;2024-01-30T02:08:06;102547.44;;;8.76;91.58
71976;BME280;68326;52.124;5.424;2024-01-30T02:10:33;102543.06;;;8.80;91.00
71976;BME280;68326;52.124;5.424;2024-01-30T02:13:00;102541.34;;;8.79;91.36
71976;BME280;68326;52.124;5.424;2024-01-30T02:15:27;102536.22;;;8.74;90.86
71976;BME280;68326;52.124;5.424;2024-01-30T02:17:55;102534.56;;;8.70;89.90
71976;BME280;68326;52.124;5.424;2024-01-30T02:20:23;102537.22;;;8.67;90.58
71976;BME280;68326;52.124;5.424;2024-01-30T02:22:52;102540.66;;;8.68;90.06
71976;BME280;68326;52.124;5.424;2024-01-30T02:25:20;102535.41;;;8.72;91.38
71976;BME280;68326;52.124;5.424;2024-01-30T02:27:47;102537.13;;;8.73;90.40
71976;BME280;68326;52.124;5.424;2024-01-30T02:30:13;102540.59;;;8.72;90.90
71976;BME280;68326;52.124;5.424;2024-01-30T02:32:40;102547.44;;;8.78;90.87
71976;BME280;68326;52.124;5.424;2024-01-30T02:35:06;102555.13;;;8.84;90.97
71976;BME280;68326;52.124;5.424;2024-01-30T02:37:33;102548.06;;;8.92;91.08
71976;BME280;68326;52.124;5.424;2024-01-30T02:39:59;102551.44;;;8.97;90.82
71976;BME280;68326;52.124;5.424;2024-01-30T02:42:26;102549.75;;;8.95;90.49
71976;BME280;68326;52.124;5.424;2024-01-30T02:44:53;102539.38;;;8.95;90.25
71976;BME280;68326;52.124;5.424;2024-01-30T02:47:19;102547.13;;;8.96;90.34
71976;BME280;68326;52.124;5.424;2024-01-30T02:49:45;102538.44;;;8.99;90.33
71976;BME280;68326;52.124;5.424;2024-01-30T02:52:12;102535.84;;;8.99;90.06
71976;BME280;68326;52.124;5.424;2024-01-30T02:54:39;102531.59;;;8.95;89.61
71976;BME280;68326;52.124;5.424;2024-01-30T02:57:05;102525.69;;;8.85;88.72
71976;BME280;68326;52.124;5.424;2024-01-30T02:59:32;102522.34;;;8.75;88.64
71976;BME280;68326;52.124;5.424;2024-01-30T03:02:02;102525.09;;;8.66;89.02
71976;BME280;68326;52.124;5.424;2024-01-30T03:04:28;102518.22;;;8.64;88.42
71976;BME280;68326;52.124;5.424;2024-01-30T03:06:56;102526.94;;;8.60;88.95
71976;BME280;68326;52.124;5.424;2024-01-30T03:09:23;102516.56;;;8.60;88.27
71976;BME280;68326;52.124;5.424;2024-01-30T03:11:49;102514.03;;;8.56;88.59
71976;BME280;68326;52.124;5.424;2024-01-30T03:14:16;102516.63;;;8.55;88.65
71976;BME280;68326;52.124;5.424;2024-01-30T03:16:43;102512.28;;;8.55;89.18
71976;BME280;68326;52.124;5.424;2024-01-30T03:19:09;102493.34;;;8.50;88.27
71976;BME280;68326;52.124;5.424;2024-01-30T03:21:36;102495.16;;;8.45;88.63
71976;BME280;68326;52.124;5.424;2024-01-30T03:24:02;102492.63;;;8.41;88.48
71976;BME280;68326;52.124;5.424;2024-01-30T03:26:29;102489.16;;;8.42;89.21
71976;BME280;68326;52.124;5.424;2024-01-30T03:28:55;102500.34;;;8.45;88.42
71976;BME280;68326;52.124;5.424;2024-01-30T03:31:22;102495.97;;;8.49;89.78
71976;BME280;68326;52.124;5.424;2024-01-30T03:33:49;102501.84;;;8.60;90.65
71976;BME280;68326;52.124;5.424;2024-01-30T03:36:15;102500.81;;;8.72;90.13
71976;BME280;68326;52.124;5.424;2024-01-30T03:38:42;102496.41;;;8.75;89.92
71976;BME280;68326;52.124;5.424;2024-01-30T03:41:09;102497.22;;;8.77;90.39
71976;BME280;68326;52.124;5.424;2024-01-30T03:43:36;102489.41;;;8.81;89.37
71976;BME280;68326;52.124;5.424;2024-01-30T03:46:03;102495.44;;;8.83;89.67
71976;BME280;68326;52.124;5.424;2024-01-30T03:48:30;102490.19;;;8.86;89.97
71976;BME280;68326;52.124;5.424;2024-01-30T03:50:56;102484.09;;;8.88;89.65
71976;BME280;68326;52.124;5.424;2024-01-30T03:53:23;102484.88;;;8.92;89.59
71976;BME280;68326;52.124;5.424;2024-01-30T03:55:49;102482.38;;;8.89;89.50
71976;BME280;68326;52.124;5.424;2024-01-30T03:58:16;102478.91;;;8.88;89.84
71976;BME280;68326;52.124;5.424;2024-01-30T04:00:43;102473.66;;;8.91;89.96
71976;BME280;68326;52.124;5.424;2024-01-30T04:03:09;102483.91;;;8.99;89.74
71976;BME280;68326;52.124;5.424;2024-01-30T04:05:36;102487.31;;;9.03;89.70
71976;BME280;68326;52.124;5.424;2024-01-30T04:08:03;102484.63;;;9.07;89.56
71976;BME280;68326;52.124;5.424;2024-01-30T04:10:29;102493.25;;;9.09;89.86
71976;BME280;68326;52.124;5.424;2024-01-30T04:12:56;102493.13;;;9.15;90.01
71976;BME280;68326;52.124;5.424;2024-01-30T04:15:22;102488.81;;;9.16;89.47
71976;BME280;68326;52.124;5.424;2024-01-30T04:17:49;102502.66;;;9.16;89.37
71976;BME280;68326;52.124;5.424;2024-01-30T04:20:16;102497.44;;;9.18;89.37
71976;BME280;68326;52.124;5.424;2024-01-30T04:22:44;102492.19;;;9.21;89.26
71976;BME280;68326;52.124;5.424;2024-01-30T04:25:11;102484.31;;;9.24;89.21
71976;BME280;68326;52.124;5.424;2024-01-30T04:27:38;102477.34;;;9.28;88.94
71976;BME280;68326;52.124;5.424;2024-01-30T04:30:05;102477.28;;;9.31;88.45
71976;BME280;68326;52.124;5.424;2024-01-30T04:32:32;102475.47;;;9.34;89.01
71976;BME280;68326;52.124;5.424;2024-01-30T04:34:59;102466.81;;;9.35;88.22
71976;BME280;68326;52.124;5.424;2024-01-30T04:37:25;102467.63;;;9.37;88.16
71976;BME280;68326;52.124;5.424;2024-01-30T04:39:52;102462.38;;;9.39;88.32
71976;BME280;68326;52.124;5.424;2024-01-30T04:42:18;102457.25;;;9.37;87.81
71976;BME280;68326;52.124;5.424;2024-01-30T04:44:45;102465.00;;;9.39;88.21
71976;BME280;68326;52.124;5.424;2024-01-30T04:47:11;102445.94;;;9.40;88.22
71976;BME280;68326;52.124;5.424;2024-01-30T04:49:39;102447.63;;;9.41;87.96
71976;BME280;68326;52.124;5.424;2024-01-30T04:52:08;102464.94;;;9.42;87.50
71976;BME280;68326;52.124;5.424;2024-01-30T04:54:35;102461.44;;;9.45;87.57
71976;BME280;68326;52.124;5.424;2024-01-30T04:57:02;102461.41;;;9.46;88.25
71976;BME280;68326;52.124;5.424;2024-01-30T04:59:29;102460.56;;;9.46;88.05
71976;BME280;68326;52.124;5.424;2024-01-30T05:01:55;102468.28;;;9.47;87.97
71976;BME280;68326;52.124;5.424;2024-01-30T05:04:22;102468.28;;;9.49;87.29
71976;BME280;68326;52.124;5.424;2024-01-30T05:06:48;102462.28;;;9.45;87.90
71976;BME280;68326;52.124;5.424;2024-01-30T05:09:15;102468.28;;;9.47;87.38
71976;BME280;68326;52.124;5.424;2024-01-30T05:11:42;102464.00;;;9.46;87.88
71976;BME280;68326;52.124;5.424;2024-01-30T05:14:08;102464.78;;;9.50;87.72
71976;BME280;68326;52.124;5.424;2024-01-30T05:16:35;102456.16;;;9.48;87.82
71976;BME280;68326;52.124;5.424;2024-01-30T05:19:01;102456.97;;;9.50;88.43
71976;BME280;68326;52.124;5.424;2024-01-30T05:21:29;102460.38;;;9.53;87.33
71976;BME280;68326;52.124;5.424;2024-01-30T05:23:55;102459.50;;;9.54;88.11
71976;BME280;68326;52.124;5.424;2024-01-30T05:26:22;102456.84;;;9.57;88.32
71976;BME280;68326;52.124;5.424;2024-01-30T05:28:49;102454.16;;;9.62;88.35
71976;BME280;68326;52.124;5.424;2024-01-30T05:31:16;102438.50;;;9.65;88.96
71976;BME280;68326;52.124;5.424;2024-01-30T05:33:42;102441.84;;;9.70;88.19
71976;BME280;68326;52.124;5.424;2024-01-30T05:36:12;102434.06;;;9.69;88.15
71976;BME280;68326;52.124;5.424;2024-01-30T05:38:39;102434.19;;;9.64;88.85
71976;BME280;68326;52.124;5.424;2024-01-30T05:41:06;102438.50;;;9.65;88.39
71976;BME280;68326;52.124;5.424;2024-01-30T05:43:32;102439.34;;;9.66;88.23
71976;BME280;68326;52.124;5.424;2024-01-30T05:45:59;102459.19;;;9.70;88.54
71976;BME280;68326;52.124;5.424;2024-01-30T05:48:26;102460.97;;;9.68;88.39
71976;BME280;68326;52.124;5.424;2024-01-30T05:50:52;102444.53;;;9.67;88.18
71976;BME280;68326;52.124;5.424;2024-01-30T05:53:19;102441.88;;;9.69;88.87
71976;BME280;68326;52.124;5.424;2024-01-30T05:55:45;102442.66;;;9.72;88.23
71976;BME280;68326;52.124;5.424;2024-01-30T05:58:12;102448.78;;;9.71;88.50
71976;BME280;68326;52.124;5.424;2024-01-30T06:00:38;102452.19;;;9.73;88.59
71976;BME280;68326;52.124;5.424;2024-01-30T06:03:05;102459.06;;;9.76;88.70
71976;BME280;68326;52.124;5.424;2024-01-30T06:05:32;102463.41;;;9.75;88.32
71976;BME280;68326;52.124;5.424;2024-01-30T06:07:58;102457.31;;;9.76;88.62
71976;BME280;68326;52.124;5.424;2024-01-30T06:10:25;102464.19;;;9.79;88.67
71976;BME280;68326;52.124;5.424;2024-01-30T06:12:51;102459.00;;;9.77;88.82
71976;BME280;68326;52.124;5.424;2024-01-30T06:15:18;102457.19;;;9.83;88.31
71976;BME280;68326;52.124;5.424;2024-01-30T06:17:44;102451.09;;;9.84;88.23
71976;BME280;68326;52.124;5.424;2024-01-30T06:20:11;102456.28;;;9.84;88.92
71976;BME280;68326;52.124;5.424;2024-01-30T06:22:37;102467.56;;;9.84;88.56
71976;BME280;68326;52.124;5.424;2024-01-30T06:25:04;102450.25;;;9.83;88.72
71976;BME280;68326;52.124;5.424;2024-01-30T06:27:31;102444.22;;;9.81;88.87
71976;BME280;68326;52.124;5.424;2024-01-30T06:29:57;102448.56;;;9.80;88.74
71976;BME280;68326;52.124;5.424;2024-01-30T06:32:24;102452.91;;;9.80;88.23
71976;BME280;68326;52.124;5.424;2024-01-30T06:34:51;102469.38;;;9.79;88.77
71976;BME280;68326;52.124;5.424;2024-01-30T06:37:17;102460.72;;;9.80;88.48
71976;BME280;68326;52.124;5.424;2024-01-30T06:39:44;102467.56;;;9.84;88.58
71976;BME280;68326;52.124;5.424;2024-01-30T06:42:11;102456.34;;;9.82;88.01
71976;BME280;68326;52.124;5.424;2024-01-30T06:44:38;102468.47;;;9.82;88.37
71976;BME280;68326;52.124;5.424;2024-01-30T06:47:04;102463.25;;;9.82;87.96
71976;BME280;68326;52.124;5.424;2024-01-30T06:49:31;102478.03;;;9.81;88.51
71976;BME280;68326;52.124;5.424;2024-01-30T06:51:58;102468.47;;;9.82;88.57
71976;BME280;68326;52.124;5.424;2024-01-30T06:54:24;102463.25;;;9.83;88.52
71976;BME280;68326;52.124;5.424;2024-01-30T06:56:51;102461.34;;;9.91;88.29
71976;BME280;68326;52.124;5.424;2024-01-30T06:59:17;102476.03;;;9.92;88.35
71976;BME280;68326;52.124;5.424;2024-01-30T07:01:44;102479.50;;;9.93;88.56
71976;BME280;68326;52.124;5.424;2024-01-30T07:04:10;102471.75;;;9.91;88.41
71976;BME280;68326;52.124;5.424;2024-01-30T07:06:37;102477.75;;;9.93;87.84
71976;BME280;68326;52.124;5.424;2024-01-30T07:09:04;102475.13;;;9.95;88.61
71976;BME280;68326;52.124;5.424;2024-01-30T07:11:31;102468.16;;;9.97;88.62
71976;BME280;68326;52.124;5.424;2024-01-30T07:13:58;102465.56;;;9.97;88.26
71976;BME280;68326;52.124;5.424;2024-01-30T07:16:25;102472.47;;;9.96;88.29
71976;BME280;68326;52.124;5.424;2024-01-30T07:18:51;102479.34;;;10.00;88.60
71976;BME280;68326;52.124;5.424;2024-01-30T07:21:18;102474.94;;;10.03;88.46
71976;BME280;68326;52.124;5.424;2024-01-30T07:23:45;102481.81;;;10.07;88.42
71976;BME280;68326;52.124;5.424;2024-01-30T07:26:11;102491.22;;;10.12;88.07
71976;BME280;68326;52.124;5.424;2024-01-30T07:28:38;102486.06;;;10.11;88.46
71976;BME280;68326;52.124;5.424;2024-01-30T07:31:04;102489.50;;;10.11;88.57
71976;BME280;68326;52.124;5.424;2024-01-30T07:33:31;102500.78;;;10.12;88.67
71976;BME280;68326;52.124;5.424;2024-01-30T07:35:58;102491.94;;;10.19;88.71
71976;BME280;68326;52.124;5.424;2024-01-30T07:38:25;102491.94;;;10.19;88.03
71976;BME280;68326;52.124;5.424;2024-01-30T07:40:51;102496.22;;;10.21;88.61
71976;BME280;68326;52.124;5.424;2024-01-30T07:43:18;102505.69;;;10.24;88.60
71976;BME280;68326;52.124;5.424;2024-01-30T07:45:46;102497.81;;;10.29;88.39
71976;BME280;68326;52.124;5.424;2024-01-30T07:48:13;102503.78;;;10.34;88.17
71976;BME280;68326;52.124;5.424;2024-01-30T07:50:40;102505.47;;;10.36;88.53
71976;BME280;68326;52.124;5.424;2024-01-30T07:53:07;102519.28;;;10.38;87.92
71976;BME280;68326;52.124;5.424;2024-01-30T07:55:33;102506.28;;;10.38;88.29
71976;BME280;68326;52.124;5.424;2024-01-30T07:58:00;102518.34;;;10.43;88.21
71976;BME280;68326;52.124;5.424;2024-01-30T08:00:27;102524.31;;;10.48;88.09
71976;BME280;68326;52.124;5.424;2024-01-30T08:02:55;102516.50;;;10.48;88.35
71976;BME280;68326;52.124;5.424;2024-01-30T08:05:22;102526.81;;;10.51;87.57
71976;BME280;68326;52.124;5.424;2024-01-30T08:07:50;102516.28;;;10.57;88.12
71976;BME280;68326;52.124;5.424;2024-01-30T08:10:17;102516.25;;;10.58;88.60
71976;BME280;68326;52.124;5.424;2024-01-30T08:12:46;102520.41;;;10.66;87.81
71976;BME280;68326;52.124;5.424;2024-01-30T08:15:13;102521.25;;;10.66;88.50
71976;BME280;68326;52.124;5.424;2024-01-30T08:17:40;102521.13;;;10.71;88.29
71976;BME280;68326;52.124;5.424;2024-01-30T08:20:07;102520.19;;;10.75;89.06
71976;BME280;68326;52.124;5.424;2024-01-30T08:22:35;102514.84;;;10.79;88.94
71976;BME280;68326;52.124;5.424;2024-01-30T08:25:01;102513.81;;;10.87;88.75
71976;BME280;68326;52.124;5.424;2024-01-30T08:27:28;102512.00;;;10.90;88.31
71976;BME280;68326;52.124;5.424;2024-01-30T08:29:55;102512.63;;;11.00;87.98
71976;BME280;68326;52.124;5.424;2024-01-30T08:32:21;102523.84;;;11.02;88.77
71976;BME280;68326;52.124;5.424;2024-01-30T08:34:48;102517.69;;;11.06;88.57
71976;BME280;68326;52.124;5.424;2024-01-30T08:37:14;102520.13;;;11.12;88.23
71976;BME280;68326;52.124;5.424;2024-01-30T08:39:43;102515.59;;;11.19;88.06
71976;BME280;68326;52.124;5.424;2024-01-30T08:42:10;102518.88;;;11.27;88.03
71976;BME280;68326;52.124;5.424;2024-01-30T08:44:37;102516.00;;;11.36;88.18
71976;BME280;68326;52.124;5.424;2024-01-30T08:47:05;102514.06;;;11.45;88.60
71976;BME280;68326;52.124;5.424;2024-01-30T08:49:32;102518.03;;;11.58;88.44
71976;BME280;68326;52.124;5.424;2024-01-30T08:51:58;102517.84;;;11.66;88.35
71976;BME280;68326;52.124;5.424;2024-01-30T08:54:25;102511.53;;;11.73;88.75
71976;BME280;68326;52.124;5.424;2024-01-30T08:56:52;102520.09;;;11.78;88.70
71976;BME280;68326;52.124;5.424;2024-01-30T08:59:19;102516.44;;;11.83;88.35
71976;BME280;68326;52.124;5.424;2024-01-30T09:01:46;102517.13;;;11.92;88.14
71976;BME280;68326;52.124;5.424;2024-01-30T09:04:28;102529.84;;;12.02;88.08
71976;BME280;68326;52.124;5.424;2024-01-30T09:06:55;102520.09;;;12.09;88.16
71976;BME280;68326;52.124;5.424;2024-01-30T09:09:22;102526.00;;;12.16;87.31
71976;BME280;68326;52.124;5.424;2024-01-30T09:11:48;102511.66;;;12.29;87.29
71976;BME280;68326;52.124;5.424;2024-01-30T09:14:15;102517.59;;;12.34;86.70
71976;BME280;68326;52.124;5.424;2024-01-30T09:16:41;102511.22;;;12.43;86.22
71976;BME280;68326;52.124;5.424;2024-01-30T09:19:08;102522.44;;;12.47;86.77
71976;BME280;68326;52.124;5.424;2024-01-30T09:21:35;102523.03;;;12.55;85.64
71976;BME280;68326;52.124;5.424;2024-01-30T09:24:02;102536.56;;;12.68;85.46
71976;BME280;68326;52.124;5.424;2024-01-30T09:26:30;102540.03;;;12.68;85.52
71976;BME280;68326;52.124;5.424;2024-01-30T09:28:56;102529.56;;;12.68;84.98
71976;BME280;68326;52.124;5.424;2024-01-30T09:31:24;102546.06;;;12.70;84.69
71976;BME280;68326;52.124;5.424;2024-01-30T09:33:51;102534.75;;;12.70;84.40
71976;BME280;68326;52.124;5.424;2024-01-30T09:36:20;102535.53;;;12.73;84.75
71976;BME280;68326;52.124;5.424;2024-01-30T09:38:46;102541.75;;;12.69;84.72
71976;BME280;68326;52.124;5.424;2024-01-30T09:41:14;102535.53;;;12.73;84.49
71976;BME280;68326;52.124;5.424;2024-01-30T09:43:47;102550.13;;;12.79;84.54
71976;BME280;68326;52.124;5.424;2024-01-30T09:46:16;102539.84;;;12.74;84.28
71976;BME280;68326;52.124;5.424;2024-01-30T09:48:46;102547.59;;;12.77;84.41
71976;BME280;68326;52.124;5.424;2024-01-30T09:51:14;102550.25;;;12.76;84.18
71976;BME280;68326;52.124;5.424;2024-01-30T09:53:42;102548.47;;;12.76;83.77
71976;BME280;68326;52.124;5.424;2024-01-30T09:56:09;102554.75;;;12.71;83.63
71976;BME280;68326;52.124;5.424;2024-01-30T09:58:39;102556.44;;;12.73;83.87
71976;BME280;68326;52.124;5.424;2024-01-30T10:01:06;102558.06;;;12.76;83.50
71976;BME280;68326;52.124;5.424;2024-01-30T10:03:33;102562.34;;;12.78;83.67
71976;BME280;68326;52.124;5.424;2024-01-30T10:06:01;102564.19;;;12.75;83.40
71976;BME280;68326;52.124;5.424;2024-01-30T10:08:27;102562.38;;;12.77;84.10
71976;BME280;68326;52.124;5.424;2024-01-30T10:10:56;102556.22;;;12.79;83.71
71976;BME280;68326;52.124;5.424;2024-01-30T10:13:25;102554.50;;;12.78;83.55
71976;BME280;68326;52.124;5.424;2024-01-30T10:15:52;102549.31;;;12.77;83.64
71976;BME280;68326;52.124;5.424;2024-01-30T10:18:19;102564.09;;;12.78;83.96
71976;BME280;68326;52.124;5.424;2024-01-30T10:20:46;102556.31;;;12.76;83.55
71976;BME280;68326;52.124;5.424;2024-01-30T10:23:13;102559.69;;;12.80;83.37
71976;BME280;68326;52.124;5.424;2024-01-30T10:25:39;102565.66;;;12.83;83.96
71976;BME280;68326;52.124;5.424;2024-01-30T10:28:06;102556.88;;;12.86;83.44
71976;BME280;68326;52.124;5.424;2024-01-30T10:30:32;102551.53;;;12.89;83.18
71976;BME280;68326;52.124;5.424;2024-01-30T10:32:59;102549.69;;;12.93;82.68
71976;BME280;68326;52.124;5.424;2024-01-30T10:35:26;102558.22;;;12.98;83.02
71976;BME280;68326;52.124;5.424;2024-01-30T10:37:54;102568.31;;;13.09;82.28
71976;BME280;68326;52.124;5.424;2024-01-30T10:40:27;102566.31;;;13.17;82.75
71976;BME280;68326;52.124;5.424;2024-01-30T10:42:55;102554.00;;;13.20;82.39
71976;BME280;68326;52.124;5.424;2024-01-30T10:45:23;102559.22;;;13.20;81.97
71976;BME280;68326;52.124;5.424;2024-01-30T10:47:55;102562.94;;;13.13;81.76
71976;BME280;68326;52.124;5.424;2024-01-30T10:50:25;102557.78;;;13.12;81.84
71976;BME280;68326;52.124;5.424;2024-01-30T10:52:53;102560.44;;;13.10;81.87
71976;BME280;68326;52.124;5.424;2024-01-30T10:55:21;102561.44;;;13.06;82.27
71976;BME280;68326;52.124;5.424;2024-01-30T10:57:49;102571.84;;;13.08;82.02
71976;BME280;68326;52.124;5.424;2024-01-30T11:00:17;102578.97;;;13.02;82.37
71976;BME280;68326;52.124;5.424;2024-01-30T11:02:49;102579.59;;;13.11;81.30
71976;BME280;68326;52.124;5.424;2024-01-30T11:05:23;102576.00;;;13.13;81.95
71976;BME280;68326;52.124;5.424;2024-01-30T11:07:54;102575.28;;;13.10;81.00
71976;BME280;68326;52.124;5.424;2024-01-30T11:10:24;102581.38;;;13.09;80.84
71976;BME280;68326;52.124;5.424;2024-01-30T11:12:51;102575.22;;;13.11;80.60
71976;BME280;68326;52.124;5.424;2024-01-30T11:15:18;102581.00;;;13.21;80.73
71976;BME280;68326;52.124;5.424;2024-01-30T11:17:50;102571.16;;;13.27;80.50
71976;BME280;68326;52.124;5.424;2024-01-30T11:20:31;102580.94;;;13.22;79.87
71976;BME280;68326;52.124;5.424;2024-01-30T11:22:58;102576.59;;;13.21;80.13
71976;BME280;68326;52.124;5.424;2024-01-30T11:25:25;102578.69;;;13.12;79.08
71976;BME280;68326;52.124;5.424;2024-01-30T11:27:54;102581.38;;;13.09;79.16
71976;BME280;68326;52.124;5.424;2024-01-30T11:30:28;102582.19;;;13.11;80.00
71976;BME280;68326;52.124;5.424;2024-01-30T11:33:06;102584.66;;;13.15;79.36
71976;BME280;68326;52.124;5.424;2024-01-30T11:35:35;102590.91;;;13.11;78.54
71976;BME280;68326;52.124;5.424;2024-01-30T11:38:03;102591.03;;;13.06;77.48
71976;BME280;68326;52.124;5.424;2024-01-30T11:40:31;102598.22;;;13.00;77.04
71976;BME280;68326;52.124;5.424;2024-01-30T11:42:59;102596.22;;;12.81;76.87
71976;BME280;68326;52.124;5.424;2024-01-30T11:45:27;102594.00;;;12.69;77.27
71976;BME280;68326;52.124;5.424;2024-01-30T11:47:54;102607.19;;;12.64;77.50
71976;BME280;68326;52.124;5.424;2024-01-30T11:50:21;102609.88;;;12.61;77.30
71976;BME280;68326;52.124;5.424;2024-01-30T11:52:48;102610.22;;;12.51;77.02
71976;BME280;68326;52.124;5.424;2024-01-30T11:55:15;102612.81;;;12.51;77.10
71976;BME280;68326;52.124;5.424;2024-01-30T11:57:41;102607.59;;;12.51;76.85
71976;BME280;68326;52.124;5.424;2024-01-30T12:00:15;102613.03;;;12.43;77.37
71976;BME280;68326;52.124;5.424;2024-01-30T12:02:43;102606.22;;;12.39;76.97
71976;BME280;68326;52.124;5.424;2024-01-30T12:05:10;102622.69;;;12.41;77.05
71976;BME280;68326;52.124;5.424;2024-01-30T12:07:37;102618.81;;;12.24;76.56
71976;BME280;68326;52.124;5.424;2024-01-30T12:10:03;102625.06;;;12.19;77.15
71976;BME280;68326;52.124;5.424;2024-01-30T12:12:32;102619.81;;;12.20;76.89
71976;BME280;68326;52.124;5.424;2024-01-30T12:14:58;102625.16;;;12.16;76.81
71976;BME280;68326;52.124;5.424;2024-01-30T12:17:30;102630.16;;;12.23;76.76
71976;BME280;68326;52.124;5.424;2024-01-30T12:20:23;102629.25;;;12.24;77.29
71976;BME280;68326;52.124;5.424;2024-01-30T12:22:49;102632.00;;;12.20;76.56
71976;BME280;68326;52.124;5.424;2024-01-30T12:25:18;102637.47;;;12.11;75.21
71976;BME280;68326;52.124;5.424;2024-01-30T12:27:52;102644.63;;;12.04;75.46
71976;BME280;68326;52.124;5.424;2024-01-30T12:30:20;102652.88;;;11.89;76.50
71976;BME280;68326;52.124;5.424;2024-01-30T12:32:50;102658.31;;;11.79;77.17
71976;BME280;68326;52.124;5.424;2024-01-30T12:35:19;102679.50;;;11.66;77.51
71976;BME280;68326;52.124;5.424;2024-01-30T12:37:48;102674.59;;;11.53;78.07
71976;BME280;68326;52.124;5.424;2024-01-30T12:40:15;102674.03;;;11.40;78.04
71976;BME280;68326;52.124;5.424;2024-01-30T12:42:43;102662.84;;;11.37;78.87
71976;BME280;68326;52.124;5.424;2024-01-30T12:45:13;102671.44;;;11.40;78.80
71976;BME280;68326;52.124;5.424;2024-01-30T12:47:41;102685.41;;;11.38;78.25
71976;BME280;68326;52.124;5.424;2024-01-30T12:50:08;102667.41;;;11.29;78.10
71976;BME280;68326;52.124;5.424;2024-01-30T12:52:35;102677.75;;;11.30;78.27
71976;BME280;68326;52.124;5.424;2024-01-30T12:55:02;102664.97;;;11.21;78.19